Sunday, February 26, 2017

  Over 48,494,314 pages visited!

GMT:
23:13
PACIFIC:
4:13:42 PM
MOUNTAIN:
5:13:42 PM

CENTRAL:
6:13:42 PM

EASTERN:
7:13:42 PM
ATLANTIC:
8:13:42 PM
NEWFOUNDLAND:
8:43:42 PM
 

 


Watches/Warnings
Current Conditions
Radar/Satellite
Lightning Images


Current Weather Conditions For TORONTO PEARSON,ON

 


A Few Clouds
 

Temperature: 00�C / 32�F
Dew Point: -9�C / 16�F
Humidity: 51 %
Pressure: 1016.7 mbs (30.02 inches)
Visibility: 24.1 kms (15 SM)
Wind Direction: SW (220�)
Wind Speed: 33.4 Km/h (20.7 MPH)
Max Wind Gust: No Gusts
Humidex: N/A
WindChill: -7�C
    

Observation Information

Date/Time: Sunday, February 26, 2017 @ 00:00Z
Local Time:
Metar Coded: CYYZ 270000Z 22018KT 15SM SCT050 OVC070 00/M09 A2999 RMK SC3AS5 SLP167

 

 

                   1997-2017 The Ontario Weather Page